createdAt,value
2023-02-17T00:04:29.384Z,3.33
2023-02-17T00:09:31.505Z,5.72
2023-02-17T00:14:33.666Z,4.90
2023-02-17T00:19:35.800Z,4.65
2023-02-17T00:24:40.193Z,4.43
2023-02-17T00:29:42.303Z,3.58
2023-02-17T00:34:44.432Z,2.30
2023-02-17T00:39:46.614Z,4.13
2023-02-17T00:44:48.736Z,3.97
2023-02-17T00:49:50.842Z,4.90
2023-02-17T00:54:53.912Z,3.97
2023-02-17T00:59:56.884Z,3.42
2023-02-17T01:04:59.005Z,3.90
2023-02-17T01:10:01.077Z,3.67
2023-02-17T01:15:03.360Z,3.70
2023-02-17T01:20:06.874Z,3.78
2023-02-17T01:25:09.208Z,3.78
2023-02-17T01:30:12.222Z,3.40
2023-02-17T01:35:14.450Z,3.80
2023-02-17T01:40:18.032Z,4.00
2023-02-17T01:45:20.123Z,3.65
2023-02-17T01:50:26.376Z,3.58
2023-02-17T01:55:29.496Z,3.35
2023-02-17T02:00:33.648Z,3.88
2023-02-17T02:05:37.756Z,4.00
2023-02-17T02:10:40.063Z,3.85
2023-02-17T02:16:10.916Z,4.70
2023-02-17T02:21:43.529Z,4.13
2023-02-17T02:27:31.007Z,3.78
2023-02-17T02:32:50.862Z,4.75
2023-02-17T02:38:11.964Z,5.18
2023-02-17T02:43:15.297Z,6.20
2023-02-17T02:48:17.665Z,4.60
2023-02-17T02:53:32.029Z,6.00
2023-02-17T02:58:58.227Z,5.75
2023-02-17T03:04:36.424Z,6.35
2023-02-17T03:09:40.828Z,6.10
2023-02-17T03:14:43.746Z,5.32
2023-02-17T03:19:47.799Z,5.90
2023-02-17T03:24:51.937Z,6.05
2023-02-17T03:29:54.692Z,6.00
2023-02-17T03:34:57.202Z,5.55
2023-02-17T03:39:59.310Z,6.53
2023-02-17T03:45:01.341Z,6.85
2023-02-17T03:50:04.212Z,5.72
2023-02-17T03:55:06.658Z,6.32
2023-02-17T04:00:09.618Z,8.32
2023-02-17T04:05:17.689Z,7.75
2023-02-17T04:10:19.926Z,6.78
2023-02-17T04:15:21.990Z,7.85
2023-02-17T04:20:24.084Z,8.18
2023-02-17T04:25:26.150Z,8.55
2023-02-17T04:30:28.403Z,8.55
2023-02-17T04:35:30.556Z,8.02
2023-02-17T04:40:33.527Z,8.63
2023-02-17T04:45:37.211Z,8.13
2023-02-17T04:50:39.240Z,8.18
2023-02-17T04:55:42.072Z,12.30
2023-02-17T05:00:44.132Z,9.20
2023-02-17T05:05:46.258Z,8.85
2023-02-17T05:10:48.299Z,4.70
2023-02-17T05:15:50.374Z,6.30
2023-02-17T05:20:52.517Z,5.35
2023-02-17T05:25:54.580Z,5.45
2023-02-17T05:30:56.689Z,5.97
2023-02-17T05:36:06.460Z,5.57
2023-02-17T05:41:08.690Z,5.35
2023-02-17T05:46:10.857Z,6.72
2023-02-17T05:51:17.235Z,4.93
2023-02-17T05:56:19.325Z,8.13
2023-02-17T06:01:21.511Z,9.63
2023-02-17T06:06:23.643Z,8.18
2023-02-17T06:11:26.089Z,8.80
2023-02-17T06:16:28.659Z,8.65
2023-02-17T06:21:31.209Z,7.95
2023-02-17T06:26:33.547Z,7.85
2023-02-17T06:31:35.905Z,7.72
2023-02-17T06:36:38.024Z,7.82
2023-02-17T06:41:40.146Z,5.93
2023-02-17T06:46:42.293Z,5.35
2023-02-17T06:51:44.538Z,6.03
2023-02-17T06:56:47.623Z,4.78
2023-02-17T07:01:50.690Z,3.67
2023-02-17T07:06:52.860Z,4.18
2023-02-17T07:11:54.971Z,5.15
2023-02-17T07:16:57.102Z,5.68
2023-02-17T07:21:59.309Z,5.78
2023-02-17T07:27:01.384Z,5.30
2023-02-17T07:32:03.611Z,6.30
2023-02-17T07:37:05.782Z,5.68
2023-02-17T07:42:08.066Z,5.65
2023-02-17T07:47:10.236Z,5.80
2023-02-17T07:52:12.381Z,4.50
2023-02-17T07:57:14.432Z,5.10
2023-02-17T08:02:16.602Z,5.13
2023-02-17T08:07:19.372Z,5.07
2023-02-17T08:12:44.985Z,5.18
2023-02-17T08:17:50.988Z,5.38
2023-02-17T08:22:53.408Z,3.88
2023-02-17T08:27:55.565Z,5.60
2023-02-17T08:32:57.813Z,5.28
2023-02-17T08:37:59.849Z,5.65
2023-02-17T08:43:03.610Z,5.97
2023-02-17T08:48:06.015Z,5.55
2023-02-17T08:53:08.259Z,5.93
2023-02-17T08:58:10.428Z,6.97
2023-02-17T09:03:12.727Z,6.65
2023-02-17T09:08:15.092Z,5.97
2023-02-17T09:13:18.494Z,6.68
2023-02-17T09:18:21.903Z,5.80
2023-02-17T09:23:24.155Z,7.32
2023-02-17T09:28:26.226Z,7.50
2023-02-17T09:33:28.476Z,7.05
2023-02-17T09:38:30.777Z,6.55
2023-02-17T09:43:33.680Z,6.05
2023-02-17T09:48:37.502Z,6.70
2023-02-17T09:53:48.815Z,7.78
2023-02-17T09:58:55.696Z,7.47
2023-02-17T10:04:06.414Z,7.57
2023-02-17T10:09:14.786Z,7.87
2023-02-17T10:14:56.023Z,8.57
2023-02-17T10:20:09.324Z,8.40
2023-02-17T10:25:24.036Z,8.52
2023-02-17T10:30:48.493Z,8.55
2023-02-17T10:36:22.578Z,7.85
2023-02-17T10:41:32.938Z,6.80
2023-02-17T10:46:35.127Z,7.10
2023-02-17T10:51:37.215Z,8.30
2023-02-17T10:56:44.857Z,6.05
2023-02-17T11:01:47.622Z,8.63
2023-02-17T11:06:57.621Z,8.68
2023-02-17T11:12:02.585Z,7.78
2023-02-17T11:17:15.280Z,6.07
2023-02-17T11:22:47.972Z,7.65
2023-02-17T11:27:56.426Z,7.88
2023-02-17T11:32:58.550Z,7.38
2023-02-17T11:38:21.961Z,6.28
2023-02-17T11:43:24.370Z,7.90
2023-02-17T11:48:35.645Z,7.68
2023-02-17T11:53:58.126Z,8.30
2023-02-17T11:59:36.058Z,7.97
2023-02-17T12:05:06.987Z,7.22
2023-02-17T12:10:24.080Z,8.20
2023-02-17T12:15:35.144Z,7.97
2023-02-17T12:20:50.009Z,7.60
2023-02-17T12:26:00.315Z,8.00
2023-02-17T12:31:26.565Z,8.50
2023-02-17T12:36:34.182Z,7.80
2023-02-17T12:41:45.881Z,7.97
2023-02-17T12:52:01.176Z,8.77
2023-02-17T12:57:11.181Z,9.13
2023-02-17T13:02:16.859Z,8.25
2023-02-17T13:07:47.021Z,7.25
2023-02-17T13:13:18.134Z,10.55
2023-02-17T13:18:29.439Z,9.77
2023-02-17T13:23:42.611Z,9.38
2023-02-17T13:28:45.354Z,9.40
2023-02-17T13:33:49.205Z,8.80
2023-02-17T13:39:01.697Z,9.20
2023-02-17T13:44:33.790Z,8.98
2023-02-17T13:49:37.007Z,7.82
2023-02-17T13:54:39.211Z,6.47
2023-02-17T13:59:41.346Z,7.95
2023-02-17T14:04:43.761Z,9.43
2023-02-17T14:09:53.969Z,8.82
2023-02-17T14:14:56.260Z,9.27
2023-02-17T14:19:58.532Z,8.95
2023-02-17T14:25:15.314Z,9.77
2023-02-17T14:30:39.661Z,9.40
2023-02-17T14:36:07.961Z,8.63
2023-02-17T14:41:10.425Z,8.98
2023-02-17T14:46:12.735Z,4.53
2023-02-17T14:51:17.249Z,10.57
2023-02-17T14:56:38.399Z,9.27
2023-02-17T15:01:40.586Z,9.23
2023-02-17T15:06:45.834Z,9.02
2023-02-17T15:11:49.323Z,9.15
2023-02-17T15:16:51.843Z,10.30
2023-02-17T15:21:54.061Z,9.95
2023-02-17T15:26:56.307Z,11.63
2023-02-17T15:32:01.620Z,10.98
2023-02-17T15:37:03.920Z,11.90
2023-02-17T15:42:12.574Z,11.07
2023-02-17T15:47:18.388Z,8.07
2023-02-17T15:52:20.449Z,9.65
2023-02-17T15:57:24.787Z,8.88
2023-02-17T16:02:26.984Z,8.50
2023-02-17T16:07:29.073Z,9.20
2023-02-17T16:12:31.850Z,10.00
2023-02-17T16:17:33.956Z,6.03
2023-02-17T16:22:36.023Z,7.85
2023-02-17T16:27:38.991Z,8.80
2023-02-17T16:32:41.127Z,9.75
2023-02-17T16:37:52.968Z,8.18
2023-02-17T16:42:55.573Z,9.85
2023-02-17T16:47:59.959Z,9.90
2023-02-17T16:53:06.300Z,9.05
2023-02-17T16:58:19.885Z,8.20
2023-02-17T17:03:22.703Z,11.18
2023-02-17T17:08:24.785Z,9.10
2023-02-17T17:13:26.873Z,9.38
2023-02-17T17:18:28.961Z,10.68
2023-02-17T17:23:31.132Z,9.82
2023-02-17T17:28:33.210Z,11.05
2023-02-17T17:33:35.246Z,9.95
2023-02-17T17:38:37.304Z,9.95
2023-02-17T17:43:39.606Z,10.50
2023-02-17T17:48:42.705Z,10.43
2023-02-17T17:53:45.764Z,11.55
2023-02-17T17:58:48.485Z,13.38
2023-02-17T18:03:51.182Z,8.45
2023-02-17T18:08:56.856Z,10.23
2023-02-17T18:14:02.799Z,10.80
2023-02-17T18:19:07.864Z,11.18
2023-02-17T18:24:09.962Z,12.95
2023-02-17T18:29:11.979Z,11.68
2023-02-17T18:34:14.240Z,12.30
2023-02-17T18:39:16.482Z,12.38
2023-02-17T18:44:18.607Z,11.80
2023-02-17T18:49:20.653Z,12.95
2023-02-17T18:54:22.742Z,12.27
2023-02-17T18:59:24.767Z,13.55
2023-02-17T19:04:27.229Z,13.27
2023-02-17T19:09:42.486Z,13.20
2023-02-17T19:14:44.730Z,11.57
2023-02-17T19:19:46.786Z,12.52
2023-02-17T19:24:53.562Z,11.25
2023-02-17T19:29:55.903Z,12.27
2023-02-17T19:34:57.988Z,11.05
2023-02-17T19:40:00.039Z,12.05
2023-02-17T19:45:02.151Z,12.50
2023-02-17T19:50:06.622Z,12.48
2023-02-17T19:55:10.192Z,13.63
2023-02-17T20:00:12.661Z,9.60
2023-02-17T20:05:14.744Z,12.45
2023-02-17T20:10:19.650Z,13.27
2023-02-17T20:15:21.748Z,12.50
2023-02-17T20:20:23.811Z,13.50
2023-02-17T20:25:26.120Z,13.00
2023-02-17T20:30:28.206Z,11.60
2023-02-17T20:35:31.005Z,12.68
2023-02-17T20:40:34.033Z,14.38
2023-02-17T20:45:37.167Z,11.10
2023-02-17T20:50:39.305Z,10.82
2023-02-17T20:55:41.323Z,8.75
2023-02-17T21:00:43.633Z,11.50
2023-02-17T21:05:45.820Z,9.45
2023-02-17T21:10:47.957Z,11.52
2023-02-17T21:15:50.371Z,12.75
2023-02-17T21:20:52.663Z,10.73
2023-02-17T21:25:55.381Z,10.77
2023-02-17T21:30:57.547Z,13.25
2023-02-17T21:36:05.555Z,10.80
2023-02-17T21:41:13.926Z,10.55
2023-02-17T21:46:16.009Z,9.20
2023-02-17T21:51:20.142Z,12.27
2023-02-17T21:56:23.067Z,12.25
2023-02-17T22:01:27.111Z,12.95
2023-02-17T22:06:32.188Z,13.45
2023-02-17T22:11:36.898Z,12.63
2023-02-17T22:16:39.749Z,14.95
2023-02-17T22:21:42.669Z,17.05
2023-02-17T22:26:44.869Z,16.55
2023-02-17T22:31:48.008Z,10.20
2023-02-17T22:36:50.202Z,15.00
2023-02-17T22:41:52.295Z,13.18
2023-02-17T22:46:54.425Z,13.77
2023-02-17T22:51:56.489Z,16.13
2023-02-17T22:56:58.882Z,12.82
2023-02-17T23:02:01.072Z,9.02
2023-02-17T23:07:03.181Z,14.27
2023-02-17T23:12:05.538Z,15.38
2023-02-17T23:17:10.810Z,7.57
2023-02-17T23:22:16.378Z,16.08
2023-02-17T23:27:18.570Z,15.85
2023-02-17T23:32:20.665Z,14.98
2023-02-17T23:37:22.816Z,14.88
2023-02-17T23:42:24.945Z,9.48
2023-02-17T23:47:27.006Z,14.38
2023-02-17T23:52:29.161Z,14.27
